sensor_id;sensor_type;location;lat;lon;timestamp;P1;durP1;ratioP1;P2;durP2;ratioP2
65545;SDS011;52177;55.968;37.498;2023-06-14T00:00:20;9.70;;;6.88;;
65545;SDS011;52177;55.968;37.498;2023-06-14T00:00:50;13.73;;;6.90;;
65545;SDS011;52177;55.968;37.498;2023-06-14T00:01:22;11.73;;;6.82;;
65545;SDS011;52177;55.968;37.498;2023-06-14T00:01:53;13.10;;;7.03;;
65545;SDS011;52177;55.968;37.498;2023-06-14T00:02:23;13.82;;;6.93;;
65545;SDS011;52177;55.968;37.498;2023-06-14T00:02:53;12.98;;;7.10;;
65545;SDS011;52177;55.968;37.498;2023-06-14T00:03:25;10.07;;;6.80;;
65545;SDS011;52177;55.968;37.498;2023-06-14T00:03:56;9.90;;;6.32;;
65545;SDS011;52177;55.968;37.498;2023-06-14T00:04:26;11.18;;;6.35;;
65545;SDS011;52177;55.968;37.498;2023-06-14T00:04:56;12.55;;;6.03;;
65545;SDS011;52177;55.968;37.498;2023-06-14T00:05:28;10.95;;;6.18;;
65545;SDS011;52177;55.968;37.498;2023-06-14T00:05:59;12.35;;;6.90;;
65545;SDS011;52177;55.968;37.498;2023-06-14T00:06:30;9.80;;;6.20;;
65545;SDS011;52177;55.968;37.498;2023-06-14T00:07:00;7.65;;;6.65;;
65545;SDS011;52177;55.968;37.498;2023-06-14T00:07:38;9.15;;;6.50;;
65545;SDS011;52177;55.968;37.498;2023-06-14T00:08:13;11.45;;;6.43;;
65545;SDS011;52177;55.968;37.498;2023-06-14T00:08:44;10.93;;;5.93;;
65545;SDS011;52177;55.968;37.498;2023-06-14T00:09:14;8.02;;;6.13;;
65545;SDS011;52177;55.968;37.498;2023-06-14T00:09:45;10.20;;;6.78;;
65545;SDS011;52177;55.968;37.498;2023-06-14T00:10:15;9.68;;;6.70;;
65545;SDS011;52177;55.968;37.498;2023-06-14T00:10:46;11.35;;;6.43;;
65545;SDS011;52177;55.968;37.498;2023-06-14T00:11:17;11.55;;;6.55;;
65545;SDS011;52177;55.968;37.498;2023-06-14T00:11:47;9.15;;;6.43;;
65545;SDS011;52177;55.968;37.498;2023-06-14T00:12:17;13.35;;;7.03;;
65545;SDS011;52177;55.968;37.498;2023-06-14T00:12:48;13.35;;;6.78;;
65545;SDS011;52177;55.968;37.498;2023-06-14T00:13:18;9.43;;;6.88;;
65545;SDS011;52177;55.968;37.498;2023-06-14T00:13:49;10.35;;;6.72;;
65545;SDS011;52177;55.968;37.498;2023-06-14T00:14:19;10.40;;;6.88;;
65545;SDS011;52177;55.968;37.498;2023-06-14T00:14:50;15.15;;;7.18;;
65545;SDS011;52177;55.968;37.498;2023-06-14T00:15:20;13.88;;;7.30;;
65545;SDS011;52177;55.968;37.498;2023-06-14T00:15:51;11.68;;;7.53;;
65545;SDS011;52177;55.968;37.498;2023-06-14T00:16:24;11.45;;;6.65;;
65545;SDS011;52177;55.968;37.498;2023-06-14T00:16:55;11.77;;;7.63;;
65545;SDS011;52177;55.968;37.498;2023-06-14T00:17:28;13.45;;;6.68;;
65545;SDS011;52177;55.968;37.498;2023-06-14T00:18:00;11.88;;;7.10;;
65545;SDS011;52177;55.968;37.498;2023-06-14T00:18:30;14.88;;;7.38;;
65545;SDS011;52177;55.968;37.498;2023-06-14T00:19:01;13.38;;;7.25;;
65545;SDS011;52177;55.968;37.498;2023-06-14T00:19:35;13.30;;;7.20;;
65545;SDS011;52177;55.968;37.498;2023-06-14T00:20:06;11.18;;;7.25;;
65545;SDS011;52177;55.968;37.498;2023-06-14T00:20:37;17.08;;;7.40;;
65545;SDS011;52177;55.968;37.498;2023-06-14T00:21:08;11.07;;;7.72;;
65545;SDS011;52177;55.968;37.498;2023-06-14T00:21:38;11.30;;;7.32;;
65545;SDS011;52177;55.968;37.498;2023-06-14T00:22:09;12.95;;;7.15;;
65545;SDS011;52177;55.968;37.498;2023-06-14T00:22:39;16.05;;;7.70;;
65545;SDS011;52177;55.968;37.498;2023-06-14T00:23:09;12.40;;;8.02;;
65545;SDS011;52177;55.968;37.498;2023-06-14T00:23:40;12.18;;;7.63;;
65545;SDS011;52177;55.968;37.498;2023-06-14T00:24:10;10.20;;;7.68;;
65545;SDS011;52177;55.968;37.498;2023-06-14T00:24:41;10.35;;;7.30;;
65545;SDS011;52177;55.968;37.498;2023-06-14T00:25:11;11.88;;;7.97;;
65545;SDS011;52177;55.968;37.498;2023-06-14T00:25:41;11.88;;;7.55;;
65545;SDS011;52177;55.968;37.498;2023-06-14T00:26:12;12.20;;;7.38;;
65545;SDS011;52177;55.968;37.498;2023-06-14T00:26:42;13.85;;;7.63;;
65545;SDS011;52177;55.968;37.498;2023-06-14T00:27:12;10.32;;;7.15;;
65545;SDS011;52177;55.968;37.498;2023-06-14T00:27:43;15.25;;;7.53;;
65545;SDS011;52177;55.968;37.498;2023-06-14T00:28:13;15.55;;;8.27;;
65545;SDS011;52177;55.968;37.498;2023-06-14T00:28:43;14.20;;;7.93;;
65545;SDS011;52177;55.968;37.498;2023-06-14T00:29:14;12.65;;;8.32;;
65545;SDS011;52177;55.968;37.498;2023-06-14T00:29:44;11.10;;;7.43;;
65545;SDS011;52177;55.968;37.498;2023-06-14T00:30:15;11.98;;;7.97;;
65545;SDS011;52177;55.968;37.498;2023-06-14T00:30:45;13.68;;;7.70;;
65545;SDS011;52177;55.968;37.498;2023-06-14T00:31:16;10.95;;;7.20;;
65545;SDS011;52177;55.968;37.498;2023-06-14T00:31:47;14.05;;;7.90;;
65545;SDS011;52177;55.968;37.498;2023-06-14T00:32:18;15.52;;;8.35;;
65545;SDS011;52177;55.968;37.498;2023-06-14T00:32:48;14.00;;;7.85;;
65545;SDS011;52177;55.968;37.498;2023-06-14T00:33:19;14.35;;;7.55;;
65545;SDS011;52177;55.968;37.498;2023-06-14T00:33:50;10.13;;;7.55;;
65545;SDS011;52177;55.968;37.498;2023-06-14T00:34:20;14.25;;;8.02;;
65545;SDS011;52177;55.968;37.498;2023-06-14T00:34:51;13.25;;;8.32;;
65545;SDS011;52177;55.968;37.498;2023-06-14T00:35:21;12.77;;;7.72;;
65545;SDS011;52177;55.968;37.498;2023-06-14T00:35:52;14.05;;;7.95;;
65545;SDS011;52177;55.968;37.498;2023-06-14T00:36:25;10.80;;;8.30;;
65545;SDS011;52177;55.968;37.498;2023-06-14T00:36:55;14.55;;;7.45;;
65545;SDS011;52177;55.968;37.498;2023-06-14T00:37:26;12.75;;;8.20;;
65545;SDS011;52177;55.968;37.498;2023-06-14T00:37:56;15.80;;;8.13;;
65545;SDS011;52177;55.968;37.498;2023-06-14T00:38:26;10.95;;;7.57;;
65545;SDS011;52177;55.968;37.498;2023-06-14T00:38:57;15.50;;;8.38;;
65545;SDS011;52177;55.968;37.498;2023-06-14T00:39:27;13.15;;;7.63;;
65545;SDS011;52177;55.968;37.498;2023-06-14T00:39:58;13.93;;;7.20;;
65545;SDS011;52177;55.968;37.498;2023-06-14T00:40:28;13.32;;;7.43;;
65545;SDS011;52177;55.968;37.498;2023-06-14T00:40:58;15.07;;;7.97;;
65545;SDS011;52177;55.968;37.498;2023-06-14T00:41:29;11.95;;;7.88;;
65545;SDS011;52177;55.968;37.498;2023-06-14T00:41:59;12.68;;;7.75;;
65545;SDS011;52177;55.968;37.498;2023-06-14T00:42:30;13.75;;;8.05;;
65545;SDS011;52177;55.968;37.498;2023-06-14T00:43:01;11.52;;;8.02;;
65545;SDS011;52177;55.968;37.498;2023-06-14T00:43:31;12.43;;;7.72;;
65545;SDS011;52177;55.968;37.498;2023-06-14T00:44:02;11.05;;;8.15;;
65545;SDS011;52177;55.968;37.498;2023-06-14T00:44:33;13.77;;;7.65;;
65545;SDS011;52177;55.968;37.498;2023-06-14T00:45:03;12.85;;;8.27;;
65545;SDS011;52177;55.968;37.498;2023-06-14T00:45:34;11.05;;;7.78;;
65545;SDS011;52177;55.968;37.498;2023-06-14T00:46:05;12.90;;;8.32;;
65545;SDS011;52177;55.968;37.498;2023-06-14T00:46:36;14.40;;;8.60;;
65545;SDS011;52177;55.968;37.498;2023-06-14T00:47:06;16.08;;;8.85;;
65545;SDS011;52177;55.968;37.498;2023-06-14T00:47:37;14.20;;;9.27;;
65545;SDS011;52177;55.968;37.498;2023-06-14T00:48:08;15.23;;;8.45;;
65545;SDS011;52177;55.968;37.498;2023-06-14T00:48:39;21.23;;;8.98;;
65545;SDS011;52177;55.968;37.498;2023-06-14T00:49:10;14.30;;;8.90;;
65545;SDS011;52177;55.968;37.498;2023-06-14T00:49:41;14.48;;;9.43;;
65545;SDS011;52177;55.968;37.498;2023-06-14T00:50:12;15.35;;;9.98;;
65545;SDS011;52177;55.968;37.498;2023-06-14T00:50:43;13.68;;;9.85;;
65545;SDS011;52177;55.968;37.498;2023-06-14T00:51:18;14.90;;;9.40;;
65545;SDS011;52177;55.968;37.498;2023-06-14T00:51:49;14.35;;;9.30;;
65545;SDS011;52177;55.968;37.498;2023-06-14T00:52:19;15.52;;;8.93;;
65545;SDS011;52177;55.968;37.498;2023-06-14T00:52:50;13.63;;;8.48;;
65545;SDS011;52177;55.968;37.498;2023-06-14T00:53:21;14.50;;;8.75;;
65545;SDS011;52177;55.968;37.498;2023-06-14T00:53:52;13.38;;;8.68;;
65545;SDS011;52177;55.968;37.498;2023-06-14T00:54:23;14.65;;;8.57;;
65545;SDS011;52177;55.968;37.498;2023-06-14T00:54:53;11.38;;;8.40;;
65545;SDS011;52177;55.968;37.498;2023-06-14T00:55:24;13.40;;;8.05;;
65545;SDS011;52177;55.968;37.498;2023-06-14T00:55:54;13.27;;;8.65;;
65545;SDS011;52177;55.968;37.498;2023-06-14T00:56:25;13.07;;;8.07;;
65545;SDS011;52177;55.968;37.498;2023-06-14T00:56:55;12.88;;;8.38;;
65545;SDS011;52177;55.968;37.498;2023-06-14T00:57:26;12.38;;;8.52;;
65545;SDS011;52177;55.968;37.498;2023-06-14T00:57:57;13.10;;;8.65;;
65545;SDS011;52177;55.968;37.498;2023-06-14T00:58:27;13.88;;;8.48;;
65545;SDS011;52177;55.968;37.498;2023-06-14T00:58:58;12.52;;;8.40;;
65545;SDS011;52177;55.968;37.498;2023-06-14T00:59:29;12.82;;;7.80;;
65545;SDS011;52177;55.968;37.498;2023-06-14T01:00:00;11.70;;;8.75;;
65545;SDS011;52177;55.968;37.498;2023-06-14T01:00:30;15.00;;;8.60;;
65545;SDS011;52177;55.968;37.498;2023-06-14T01:01:00;14.82;;;9.32;;
65545;SDS011;52177;55.968;37.498;2023-06-14T01:01:32;14.77;;;9.63;;
65545;SDS011;52177;55.968;37.498;2023-06-14T01:02:05;13.90;;;9.20;;
65545;SDS011;52177;55.968;37.498;2023-06-14T01:02:36;17.70;;;8.82;;
65545;SDS011;52177;55.968;37.498;2023-06-14T01:03:07;13.73;;;8.98;;
65545;SDS011;52177;55.968;37.498;2023-06-14T01:03:42;13.57;;;8.90;;
65545;SDS011;52177;55.968;37.498;2023-06-14T01:04:13;14.85;;;8.85;;
65545;SDS011;52177;55.968;37.498;2023-06-14T01:04:48;14.95;;;8.80;;
65545;SDS011;52177;55.968;37.498;2023-06-14T01:05:20;12.07;;;8.70;;
65545;SDS011;52177;55.968;37.498;2023-06-14T01:05:52;13.30;;;8.88;;
65545;SDS011;52177;55.968;37.498;2023-06-14T01:07:07;18.33;;;9.35;;
65545;SDS011;52177;55.968;37.498;2023-06-14T01:09:37;12.98;;;7.88;;
65545;SDS011;52177;55.968;37.498;2023-06-14T01:10:56;14.43;;;8.15;;
65545;SDS011;52177;55.968;37.498;2023-06-14T01:11:41;11.48;;;8.10;;
65545;SDS011;52177;55.968;37.498;2023-06-14T01:12:31;16.40;;;8.63;;
65545;SDS011;52177;55.968;37.498;2023-06-14T01:13:11;17.13;;;8.77;;
65545;SDS011;52177;55.968;37.498;2023-06-14T01:13:50;13.65;;;8.27;;
65545;SDS011;52177;55.968;37.498;2023-06-14T01:14:22;15.70;;;8.60;;
65545;SDS011;52177;55.968;37.498;2023-06-14T01:14:53;17.70;;;8.95;;
65545;SDS011;52177;55.968;37.498;2023-06-14T01:15:25;13.10;;;7.97;;
65545;SDS011;52177;55.968;37.498;2023-06-14T01:15:57;11.70;;;8.82;;
65545;SDS011;52177;55.968;37.498;2023-06-14T01:16:29;13.52;;;8.65;;
65545;SDS011;52177;55.968;37.498;2023-06-14T01:17:01;15.18;;;8.35;;
65545;SDS011;52177;55.968;37.498;2023-06-14T01:17:32;13.93;;;9.05;;
65545;SDS011;52177;55.968;37.498;2023-06-14T01:18:04;14.82;;;8.50;;
65545;SDS011;52177;55.968;37.498;2023-06-14T01:18:35;13.50;;;8.63;;
65545;SDS011;52177;55.968;37.498;2023-06-14T01:19:06;15.02;;;8.80;;
65545;SDS011;52177;55.968;37.498;2023-06-14T01:19:49;14.20;;;8.52;;
65545;SDS011;52177;55.968;37.498;2023-06-14T01:20:28;16.65;;;8.60;;
65545;SDS011;52177;55.968;37.498;2023-06-14T01:21:01;14.52;;;8.32;;
65545;SDS011;52177;55.968;37.498;2023-06-14T01:21:38;11.77;;;8.68;;
65545;SDS011;52177;55.968;37.498;2023-06-14T01:22:11;14.60;;;8.30;;
65545;SDS011;52177;55.968;37.498;2023-06-14T01:22:47;15.93;;;9.68;;
65545;SDS011;52177;55.968;37.498;2023-06-14T01:23:23;15.52;;;9.25;;
65545;SDS011;52177;55.968;37.498;2023-06-14T01:23:53;15.48;;;9.63;;
65545;SDS011;52177;55.968;37.498;2023-06-14T01:24:24;13.43;;;9.40;;
65545;SDS011;52177;55.968;37.498;2023-06-14T01:24:55;13.55;;;9.55;;
65545;SDS011;52177;55.968;37.498;2023-06-14T01:25:26;13.82;;;9.80;;
65545;SDS011;52177;55.968;37.498;2023-06-14T01:25:56;16.40;;;9.98;;
65545;SDS011;52177;55.968;37.498;2023-06-14T01:26:27;15.93;;;10.40;;
65545;SDS011;52177;55.968;37.498;2023-06-14T01:26:59;19.73;;;10.80;;
65545;SDS011;52177;55.968;37.498;2023-06-14T01:27:32;17.48;;;9.73;;
65545;SDS011;52177;55.968;37.498;2023-06-14T01:28:04;16.35;;;10.35;;
65545;SDS011;52177;55.968;37.498;2023-06-14T01:28:42;15.15;;;10.10;;
65545;SDS011;52177;55.968;37.498;2023-06-14T01:29:18;18.60;;;10.38;;
65545;SDS011;52177;55.968;37.498;2023-06-14T01:29:50;15.63;;;10.40;;
65545;SDS011;52177;55.968;37.498;2023-06-14T01:30:26;15.32;;;9.95;;
65545;SDS011;52177;55.968;37.498;2023-06-14T01:30:59;16.77;;;9.90;;
65545;SDS011;52177;55.968;37.498;2023-06-14T01:31:33;14.85;;;9.50;;
65545;SDS011;52177;55.968;37.498;2023-06-14T01:32:11;16.52;;;9.63;;
65545;SDS011;52177;55.968;37.498;2023-06-14T01:32:41;16.45;;;9.43;;
65545;SDS011;52177;55.968;37.498;2023-06-14T01:33:12;16.13;;;10.80;;
65545;SDS011;52177;55.968;37.498;2023-06-14T01:33:44;13.32;;;9.32;;
65545;SDS011;52177;55.968;37.498;2023-06-14T01:34:16;15.77;;;10.23;;
65545;SDS011;52177;55.968;37.498;2023-06-14T01:34:46;16.02;;;9.52;;
65545;SDS011;52177;55.968;37.498;2023-06-14T01:35:17;14.15;;;9.77;;
65545;SDS011;52177;55.968;37.498;2023-06-14T01:35:49;15.30;;;9.75;;
65545;SDS011;52177;55.968;37.498;2023-06-14T01:36:20;14.43;;;9.30;;
65545;SDS011;52177;55.968;37.498;2023-06-14T01:36:54;12.27;;;9.05;;
65545;SDS011;52177;55.968;37.498;2023-06-14T01:37:25;12.85;;;8.40;;
65545;SDS011;52177;55.968;37.498;2023-06-14T01:37:56;16.25;;;9.27;;
65545;SDS011;52177;55.968;37.498;2023-06-14T01:38:28;13.95;;;8.50;;
65545;SDS011;52177;55.968;37.498;2023-06-14T01:39:00;13.52;;;8.95;;
65545;SDS011;52177;55.968;37.498;2023-06-14T01:39:31;11.70;;;8.68;;
65545;SDS011;52177;55.968;37.498;2023-06-14T01:40:03;13.52;;;8.95;;
65545;SDS011;52177;55.968;37.498;2023-06-14T01:40:36;15.88;;;8.70;;
65545;SDS011;52177;55.968;37.498;2023-06-14T01:41:07;13.85;;;8.73;;
65545;SDS011;52177;55.968;37.498;2023-06-14T01:41:39;15.70;;;8.85;;
65545;SDS011;52177;55.968;37.498;2023-06-14T01:42:10;16.42;;;9.02;;
65545;SDS011;52177;55.968;37.498;2023-06-14T01:42:42;12.70;;;8.63;;
65545;SDS011;52177;55.968;37.498;2023-06-14T01:43:15;15.02;;;8.70;;
65545;SDS011;52177;55.968;37.498;2023-06-14T01:43:46;16.02;;;8.45;;
65545;SDS011;52177;55.968;37.498;2023-06-14T01:44:18;14.23;;;8.27;;
65545;SDS011;52177;55.968;37.498;2023-06-14T01:44:50;13.55;;;9.10;;
65545;SDS011;52177;55.968;37.498;2023-06-14T01:45:22;14.07;;;8.95;;
65545;SDS011;52177;55.968;37.498;2023-06-14T01:45:53;11.65;;;8.77;;
65545;SDS011;52177;55.968;37.498;2023-06-14T01:46:25;16.17;;;8.60;;
65545;SDS011;52177;55.968;37.498;2023-06-14T01:46:56;13.95;;;8.70;;
65545;SDS011;52177;55.968;37.498;2023-06-14T01:47:27;11.50;;;8.40;;
65545;SDS011;52177;55.968;37.498;2023-06-14T01:47:57;11.65;;;8.10;;
65545;SDS011;52177;55.968;37.498;2023-06-14T01:48:28;13.70;;;8.70;;
65545;SDS011;52177;55.968;37.498;2023-06-14T01:48:58;14.95;;;9.00;;
65545;SDS011;52177;55.968;37.498;2023-06-14T01:49:29;14.02;;;8.98;;
65545;SDS011;52177;55.968;37.498;2023-06-14T01:50:00;15.13;;;8.80;;
65545;SDS011;52177;55.968;37.498;2023-06-14T01:50:30;10.85;;;8.20;;
65545;SDS011;52177;55.968;37.498;2023-06-14T01:51:01;11.98;;;8.43;;
65545;SDS011;52177;55.968;37.498;2023-06-14T01:51:31;14.60;;;8.45;;
65545;SDS011;52177;55.968;37.498;2023-06-14T01:52:02;18.10;;;8.48;;
65545;SDS011;52177;55.968;37.498;2023-06-14T01:52:32;14.75;;;8.30;;
65545;SDS011;52177;55.968;37.498;2023-06-14T01:53:03;12.85;;;8.50;;
65545;SDS011;52177;55.968;37.498;2023-06-14T01:53:37;17.13;;;9.20;;
65545;SDS011;52177;55.968;37.498;2023-06-14T01:54:08;10.20;;;8.05;;
65545;SDS011;52177;55.968;37.498;2023-06-14T01:54:38;15.23;;;8.60;;
65545;SDS011;52177;55.968;37.498;2023-06-14T01:55:12;14.93;;;8.30;;
65545;SDS011;52177;55.968;37.498;2023-06-14T01:55:43;16.35;;;8.18;;
65545;SDS011;52177;55.968;37.498;2023-06-14T01:56:14;14.73;;;8.15;;
65545;SDS011;52177;55.968;37.498;2023-06-14T01:56:44;9.57;;;7.32;;
65545;SDS011;52177;55.968;37.498;2023-06-14T01:57:15;10.73;;;7.53;;
65545;SDS011;52177;55.968;37.498;2023-06-14T01:57:46;10.20;;;7.28;;
65545;SDS011;52177;55.968;37.498;2023-06-14T01:58:16;10.48;;;7.72;;
65545;SDS011;52177;55.968;37.498;2023-06-14T01:58:47;11.35;;;8.65;;
65545;SDS011;52177;55.968;37.498;2023-06-14T01:59:18;13.60;;;7.97;;
65545;SDS011;52177;55.968;37.498;2023-06-14T01:59:49;13.05;;;7.78;;
65545;SDS011;52177;55.968;37.498;2023-06-14T02:00:19;8.57;;;6.85;;
65545;SDS011;52177;55.968;37.498;2023-06-14T02:00:51;10.60;;;7.18;;
65545;SDS011;52177;55.968;37.498;2023-06-14T02:01:25;14.40;;;7.18;;
65545;SDS011;52177;55.968;37.498;2023-06-14T02:01:56;8.90;;;6.88;;
65545;SDS011;52177;55.968;37.498;2023-06-14T02:02:27;12.15;;;7.43;;
65545;SDS011;52177;55.968;37.498;2023-06-14T02:02:57;11.07;;;7.30;;
65545;SDS011;52177;55.968;37.498;2023-06-14T02:03:27;11.32;;;7.50;;
65545;SDS011;52177;55.968;37.498;2023-06-14T02:03:58;8.20;;;6.90;;
65545;SDS011;52177;55.968;37.498;2023-06-14T02:04:28;13.73;;;8.05;;
65545;SDS011;52177;55.968;37.498;2023-06-14T02:04:59;12.65;;;7.45;;
65545;SDS011;52177;55.968;37.498;2023-06-14T02:05:29;8.63;;;6.93;;
65545;SDS011;52177;55.968;37.498;2023-06-14T02:06:00;12.90;;;7.05;;
65545;SDS011;52177;55.968;37.498;2023-06-14T02:06:31;13.23;;;7.40;;
65545;SDS011;52177;55.968;37.498;2023-06-14T02:07:01;12.07;;;7.03;;
65545;SDS011;52177;55.968;37.498;2023-06-14T02:07:31;11.07;;;7.03;;
65545;SDS011;52177;55.968;37.498;2023-06-14T02:08:03;10.27;;;7.65;;
65545;SDS011;52177;55.968;37.498;2023-06-14T02:08:33;10.15;;;6.78;;
65545;SDS011;52177;55.968;37.498;2023-06-14T02:09:04;10.80;;;7.25;;
65545;SDS011;52177;55.968;37.498;2023-06-14T02:09:34;10.05;;;7.35;;
65545;SDS011;52177;55.968;37.498;2023-06-14T02:10:05;8.85;;;7.38;;
65545;SDS011;52177;55.968;37.498;2023-06-14T02:10:36;9.93;;;7.43;;
65545;SDS011;52177;55.968;37.498;2023-06-14T02:11:06;11.50;;;7.75;;
65545;SDS011;52177;55.968;37.498;2023-06-14T02:11:36;12.07;;;7.38;;
65545;SDS011;52177;55.968;37.498;2023-06-14T02:12:07;12.43;;;7.60;;
65545;SDS011;52177;55.968;37.498;2023-06-14T02:12:38;9.40;;;6.97;;
65545;SDS011;52177;55.968;37.498;2023-06-14T02:13:08;12.27;;;7.50;;
65545;SDS011;52177;55.968;37.498;2023-06-14T02:13:39;11.95;;;6.88;;
65545;SDS011;52177;55.968;37.498;2023-06-14T02:14:09;10.48;;;7.38;;
65545;SDS011;52177;55.968;37.498;2023-06-14T02:14:41;11.27;;;7.75;;
65545;SDS011;52177;55.968;37.498;2023-06-14T02:15:12;11.65;;;7.45;;
65545;SDS011;52177;55.968;37.498;2023-06-14T02:15:47;10.68;;;7.45;;
65545;SDS011;52177;55.968;37.498;2023-06-14T02:16:21;11.15;;;7.25;;
65545;SDS011;52177;55.968;37.498;2023-06-14T02:16:52;9.35;;;7.55;;
65545;SDS011;52177;55.968;37.498;2023-06-14T02:17:23;9.93;;;7.30;;
65545;SDS011;52177;55.968;37.498;2023-06-14T02:17:54;10.75;;;6.53;;
65545;SDS011;52177;55.968;37.498;2023-06-14T02:18:24;10.80;;;7.10;;
65545;SDS011;52177;55.968;37.498;2023-06-14T02:18:55;8.55;;;6.72;;
65545;SDS011;52177;55.968;37.498;2023-06-14T02:19:25;9.88;;;6.78;;
65545;SDS011;52177;55.968;37.498;2023-06-14T02:19:56;8.70;;;6.90;;
65545;SDS011;52177;55.968;37.498;2023-06-14T02:20:27;12.82;;;6.70;;
65545;SDS011;52177;55.968;37.498;2023-06-14T02:20:58;9.05;;;6.82;;
65545;SDS011;52177;55.968;37.498;2023-06-14T02:21:28;9.32;;;6.63;;
65545;SDS011;52177;55.968;37.498;2023-06-14T02:21:59;13.23;;;6.85;;
65545;SDS011;52177;55.968;37.498;2023-06-14T02:22:29;9.43;;;6.78;;
65545;SDS011;52177;55.968;37.498;2023-06-14T02:23:00;7.65;;;6.85;;
65545;SDS011;52177;55.968;37.498;2023-06-14T02:23:30;9.57;;;6.40;;
65545;SDS011;52177;55.968;37.498;2023-06-14T02:24:02;8.88;;;6.70;;
65545;SDS011;52177;55.968;37.498;2023-06-14T02:24:32;9.15;;;6.80;;
65545;SDS011;52177;55.968;37.498;2023-06-14T02:25:02;11.10;;;6.15;;
65545;SDS011;52177;55.968;37.498;2023-06-14T02:25:33;8.93;;;6.22;;
65545;SDS011;52177;55.968;37.498;2023-06-14T02:26:04;10.40;;;6.75;;
65545;SDS011;52177;55.968;37.498;2023-06-14T02:26:34;8.40;;;6.07;;
65545;SDS011;52177;55.968;37.498;2023-06-14T02:27:05;11.73;;;6.10;;
65545;SDS011;52177;55.968;37.498;2023-06-14T02:27:36;9.13;;;6.65;;
65545;SDS011;52177;55.968;37.498;2023-06-14T02:28:06;8.85;;;6.65;;
65545;SDS011;52177;55.968;37.498;2023-06-14T02:28:37;11.25;;;5.70;;
65545;SDS011;52177;55.968;37.498;2023-06-14T02:29:07;10.48;;;5.82;;
65545;SDS011;52177;55.968;37.498;2023-06-14T02:29:42;8.73;;;5.82;;
65545;SDS011;52177;55.968;37.498;2023-06-14T02:30:13;8.05;;;5.32;;
65545;SDS011;52177;55.968;37.498;2023-06-14T02:30:43;8.43;;;5.45;;
65545;SDS011;52177;55.968;37.498;2023-06-14T02:31:14;10.05;;;5.80;;
65545;SDS011;52177;55.968;37.498;2023-06-14T02:31:44;7.32;;;5.10;;
65545;SDS011;52177;55.968;37.498;2023-06-14T02:32:16;11.43;;;6.40;;
65545;SDS011;52177;55.968;37.498;2023-06-14T02:32:47;7.88;;;5.10;;
65545;SDS011;52177;55.968;37.498;2023-06-14T02:33:18;6.55;;;5.05;;
65545;SDS011;52177;55.968;37.498;2023-06-14T02:33:48;8.13;;;5.00;;
65545;SDS011;52177;55.968;37.498;2023-06-14T02:34:19;8.82;;;5.53;;
65545;SDS011;52177;55.968;37.498;2023-06-14T02:34:50;8.02;;;5.40;;
65545;SDS011;52177;55.968;37.498;2023-06-14T02:35:20;10.52;;;5.20;;
65545;SDS011;52177;55.968;37.498;2023-06-14T02:35:52;6.30;;;4.93;;
65545;SDS011;52177;55.968;37.498;2023-06-14T02:36:22;9.40;;;5.47;;
65545;SDS011;52177;55.968;37.498;2023-06-14T02:36:53;8.10;;;5.35;;
65545;SDS011;52177;55.968;37.498;2023-06-14T02:37:23;6.85;;;5.30;;
65545;SDS011;52177;55.968;37.498;2023-06-14T02:37:54;6.85;;;4.90;;
65545;SDS011;52177;55.968;37.498;2023-06-14T02:38:24;9.70;;;4.55;;
65545;SDS011;52177;55.968;37.498;2023-06-14T02:38:55;5.72;;;4.72;;
65545;SDS011;52177;55.968;37.498;2023-06-14T02:39:27;7.10;;;4.35;;
65545;SDS011;52177;55.968;37.498;2023-06-14T02:39:58;10.50;;;4.60;;
65545;SDS011;52177;55.968;37.498;2023-06-14T02:40:28;10.10;;;4.63;;
65545;SDS011;52177;55.968;37.498;2023-06-14T02:40:59;7.00;;;5.13;;
65545;SDS011;52177;55.968;37.498;2023-06-14T02:41:31;8.00;;;4.78;;
65545;SDS011;52177;55.968;37.498;2023-06-14T02:42:02;5.47;;;4.60;;
65545;SDS011;52177;55.968;37.498;2023-06-14T02:42:32;8.63;;;4.72;;
65545;SDS011;52177;55.968;37.498;2023-06-14T02:43:03;7.72;;;4.35;;
65545;SDS011;52177;55.968;37.498;2023-06-14T02:43:33;6.25;;;4.53;;
65545;SDS011;52177;55.968;37.498;2023-06-14T02:44:04;7.03;;;4.30;;
65545;SDS011;52177;55.968;37.498;2023-06-14T02:44:34;5.25;;;4.40;;
65545;SDS011;52177;55.968;37.498;2023-06-14T02:45:06;8.32;;;4.35;;
65545;SDS011;52177;55.968;37.498;2023-06-14T02:45:37;6.70;;;4.38;;
65545;SDS011;52177;55.968;37.498;2023-06-14T02:46:07;7.00;;;4.30;;
65545;SDS011;52177;55.968;37.498;2023-06-14T02:46:37;6.80;;;4.65;;
65545;SDS011;52177;55.968;37.498;2023-06-14T02:47:08;5.53;;;4.38;;
65545;SDS011;52177;55.968;37.498;2023-06-14T02:47:38;7.75;;;4.38;;
65545;SDS011;52177;55.968;37.498;2023-06-14T02:48:09;4.78;;;4.20;;
65545;SDS011;52177;55.968;37.498;2023-06-14T02:48:41;7.10;;;4.47;;
65545;SDS011;52177;55.968;37.498;2023-06-14T02:49:11;8.48;;;4.40;;
65545;SDS011;52177;55.968;37.498;2023-06-14T02:49:42;6.82;;;4.07;;
65545;SDS011;52177;55.968;37.498;2023-06-14T02:50:13;6.43;;;4.55;;
65545;SDS011;52177;55.968;37.498;2023-06-14T02:50:43;7.60;;;4.28;;
65545;SDS011;52177;55.968;37.498;2023-06-14T02:51:14;5.75;;;3.97;;
65545;SDS011;52177;55.968;37.498;2023-06-14T02:51:44;7.57;;;4.25;;
65545;SDS011;52177;55.968;37.498;2023-06-14T02:52:15;5.70;;;4.15;;
65545;SDS011;52177;55.968;37.498;2023-06-14T02:52:45;5.97;;;4.13;;
65545;SDS011;52177;55.968;37.498;2023-06-14T02:53:17;7.00;;;4.07;;
65545;SDS011;52177;55.968;37.498;2023-06-14T02:53:47;7.90;;;4.35;;
65545;SDS011;52177;55.968;37.498;2023-06-14T02:54:18;7.68;;;4.43;;
65545;SDS011;52177;55.968;37.498;2023-06-14T02:54:48;7.82;;;4.15;;
65545;SDS011;52177;55.968;37.498;2023-06-14T02:55:19;12.55;;;4.32;;
65545;SDS011;52177;55.968;37.498;2023-06-14T02:55:49;9.60;;;4.30;;
65545;SDS011;52177;55.968;37.498;2023-06-14T02:56:19;5.57;;;4.05;;
65545;SDS011;52177;55.968;37.498;2023-06-14T02:56:50;10.23;;;4.20;;
65545;SDS011;52177;55.968;37.498;2023-06-14T02:57:21;6.57;;;4.53;;
65545;SDS011;52177;55.968;37.498;2023-06-14T02:57:52;6.35;;;4.00;;
65545;SDS011;52177;55.968;37.498;2023-06-14T02:58:23;7.53;;;3.92;;
65545;SDS011;52177;55.968;37.498;2023-06-14T02:58:54;5.75;;;3.97;;
65545;SDS011;52177;55.968;37.498;2023-06-14T02:59:25;6.00;;;4.13;;
65545;SDS011;52177;55.968;37.498;2023-06-14T02:59:56;10.85;;;4.10;;
65545;SDS011;52177;55.968;37.498;2023-06-14T03:00:26;5.00;;;4.10;;
65545;SDS011;52177;55.968;37.498;2023-06-14T03:01:00;6.45;;;3.95;;
65545;SDS011;52177;55.968;37.498;2023-06-14T03:01:33;7.68;;;4.45;;
65545;SDS011;52177;55.968;37.498;2023-06-14T03:02:04;9.68;;;4.18;;
65545;SDS011;52177;55.968;37.498;2023-06-14T03:02:35;6.07;;;4.18;;
65545;SDS011;52177;55.968;37.498;2023-06-14T03:03:05;7.10;;;4.00;;
65545;SDS011;52177;55.968;37.498;2023-06-14T03:03:43;8.57;;;4.20;;
65545;SDS011;52177;55.968;37.498;2023-06-14T03:04:14;6.30;;;4.00;;
65545;SDS011;52177;55.968;37.498;2023-06-14T03:04:45;4.85;;;4.10;;
65545;SDS011;52177;55.968;37.498;2023-06-14T03:05:17;6.28;;;3.95;;
65545;SDS011;52177;55.968;37.498;2023-06-14T03:05:51;7.80;;;3.88;;
65545;SDS011;52177;55.968;37.498;2023-06-14T03:06:22;8.43;;;4.40;;
65545;SDS011;52177;55.968;37.498;2023-06-14T03:06:55;5.13;;;3.40;;
65545;SDS011;52177;55.968;37.498;2023-06-14T03:07:27;4.18;;;3.72;;
65545;SDS011;52177;55.968;37.498;2023-06-14T03:07:59;6.95;;;3.75;;